Aviation Digital Data Service (ADDS)

Output produced by TAFs form (0024 UTC 21 January 2018)
found at http://aviationweather.gov/adds/tafs/
 
KPUB 202357Z 2100/2124 25007G17KT P6SM FEW100 SCT150 BKN250 
     FM210200 06010KT P6SM SCT100 BKN250 
     FM210800 03012KT P6SM FEW030 BKN050 
     FM211700 35015G25KT 4SM -SN FEW010 OVC020